Time;durP1;ratioP1;P1;durP2;ratioP2;P2;SDS_P1;SDS_P2;PMS_P1;PMS_P2;Temp;Humidity;BMP_temperature;BMP_pressure;BME280_temperature;BME280_humidity;BME280_pressure;Samples;Min_cycle;Max_cycle;Signal;HPM_P1;HPM_P2
2024/03/29 01:44:41;;;;;;;2.43;1.80;;;7.80;99.90;;;;;;4999285;28;20501;-70
2024/03/29 01:47:09;;;;;;;2.00;1.70;;;7.80;99.90;;;;;;5021246;28;20599;-71
2024/03/29 01:49:36;;;;;;;2.27;1.50;;;7.70;99.90;;;;;;5018197;28;20490;-70
2024/03/29 01:52:04;;;;;;;1.70;1.60;;;7.70;99.90;;;;;;5009432;28;20479;-71
2024/03/29 01:54:31;;;;;;;1.90;1.80;;;7.70;99.90;;;;;;5009264;28;20530;-70
2024/03/29 01:56:59;;;;;;;1.93;1.60;;;7.70;99.90;;;;;;5010244;28;20500;-70
2024/03/29 01:59:27;;;;;;;2.63;1.60;;;7.60;99.90;;;;;;5015616;28;20483;-70
2024/03/29 02:01:55;;;;;;;2.50;1.50;;;7.60;99.90;;;;;;5022299;28;20805;-70
2024/03/29 02:04:23;;;;;;;2.50;1.70;;;7.60;99.90;;;;;;5023927;28;20519;-70
2024/03/29 02:06:50;;;;;;;1.87;1.77;;;7.60;99.90;;;;;;5018349;28;20517;-70
2024/03/29 02:09:17;;;;;;;2.07;1.70;;;7.60;99.90;;;;;;5022821;28;20471;-70
2024/03/29 02:11:44;;;;;;;1.60;1.50;;;7.70;99.90;;;;;;5022638;28;20495;-70
2024/03/29 02:14:11;;;;;;;2.70;1.30;;;7.60;99.90;;;;;;5014161;28;20985;-70
2024/03/29 02:16:38;;;;;;;1.90;1.70;;;7.60;99.90;;;;;;5025487;28;20533;-70
2024/03/29 02:19:07;;;;;;;2.30;1.70;;;7.60;99.90;;;;;;5023448;28;20476;-70
2024/03/29 02:21:38;;;;;;;1.70;1.60;;;7.60;99.90;;;;;;5019644;28;20475;-70
2024/03/29 02:24:08;;;;;;;1.70;1.60;;;7.60;99.90;;;;;;5021099;28;20491;-70
2024/03/29 02:26:41;;;;;;;3.00;1.70;;;7.50;99.90;;;;;;5014658;28;20627;-71
2024/03/29 02:29:08;;;;;;;4.40;1.60;;;7.50;99.90;;;;;;5014005;28;20471;-70
2024/03/29 02:31:35;;;;;;;1.80;1.70;;;7.50;99.90;;;;;;5014861;28;20482;-70
2024/03/29 02:34:03;;;;;;;3.17;2.07;;;7.50;99.90;;;;;;5024400;28;20503;-71
2024/03/29 02:36:30;;;;;;;4.07;1.70;;;7.50;99.90;;;;;;5023697;28;20480;-70
2024/03/29 02:38:57;;;;;;;5.60;1.90;;;7.40;99.90;;;;;;5017677;28;20542;-70
2024/03/29 02:41:26;;;;;;;1.73;1.63;;;7.40;99.90;;;;;;5010232;28;20491;-70
2024/03/29 02:43:54;;;;;;;1.37;1.27;;;7.40;99.90;;;;;;5019025;28;20487;-70
2024/03/29 02:46:21;;;;;;;1.67;1.40;;;7.40;99.90;;;;;;5022111;28;20491;-71
2024/03/29 02:48:48;;;;;;;1.80;1.40;;;7.30;99.90;;;;;;5015904;28;20467;-70
2024/03/29 02:51:15;;;;;;;1.17;1.07;;;7.40;99.90;;;;;;5020879;28;20475;-70
2024/03/29 02:53:41;;;;;;;3.93;1.57;;;7.40;99.90;;;;;;5009709;28;20491;-70
2024/03/29 02:56:08;;;;;;;1.87;1.67;;;7.40;99.90;;;;;;5011951;28;20479;-70
2024/03/29 02:58:35;;;;;;;2.13;1.50;;;7.40;99.90;;;;;;5013169;28;21014;-70
2024/03/29 03:01:07;;;;;;;1.70;1.37;;;7.30;99.90;;;;;;5013654;28;20479;-70
2024/03/29 03:03:33;;;;;;;2.77;1.43;;;7.40;99.90;;;;;;5029135;28;20527;-70
2024/03/29 03:06:00;;;;;;;1.27;1.13;;;7.30;99.90;;;;;;5014930;28;21078;-70
2024/03/29 03:11:12;;;;;;;3.83;1.73;;;7.30;99.90;;;;;;5026289;28;20486;-70
2024/03/29 03:13:40;;;;;;;2.07;1.50;;;7.30;99.90;;;;;;5033693;28;20494;-70
2024/03/29 03:16:07;;;;;;;2.73;1.50;;;7.20;99.90;;;;;;5037597;28;20520;-70
2024/03/29 03:18:34;;;;;;;1.30;1.20;;;7.20;99.90;;;;;;5036097;28;20481;-71
2024/03/29 03:21:01;;;;;;;3.27;1.60;;;7.30;99.90;;;;;;5026414;28;21004;-70
2024/03/29 03:23:28;;;;;;;1.77;1.20;;;7.30;99.90;;;;;;5013580;28;20497;-70
2024/03/29 03:25:55;;;;;;;1.53;1.30;;;7.30;99.90;;;;;;5010485;28;20494;-70
2024/03/29 03:28:22;;;;;;;1.73;1.20;;;7.30;99.90;;;;;;5035689;28;20985;-70
2024/03/29 03:30:50;;;;;;;1.93;1.23;;;7.30;99.90;;;;;;5016492;28;20479;-70
2024/03/29 03:33:17;;;;;;;2.03;1.70;;;7.30;99.90;;;;;;5011805;28;20541;-70
2024/03/29 03:35:43;;;;;;;2.63;1.57;;;7.20;99.90;;;;;;5013751;28;20838;-70
2024/03/29 03:38:10;;;;;;;1.90;1.20;;;7.20;99.90;;;;;;5018548;28;20861;-70
2024/03/29 03:40:38;;;;;;;2.27;1.30;;;7.20;99.90;;;;;;5010668;28;20468;-70
2024/03/29 03:43:06;;;;;;;3.80;1.37;;;7.20;99.90;;;;;;5020586;28;20483;-71
2024/03/29 03:45:34;;;;;;;1.93;1.30;;;7.20;99.90;;;;;;5022271;28;20483;-70
2024/03/29 03:48:03;;;;;;;1.37;1.27;;;7.20;99.90;;;;;;5019411;28;20844;-70
2024/03/29 03:50:29;;;;;;;1.93;0.90;;;7.20;99.90;;;;;;5009975;28;21088;-70
2024/03/29 03:52:56;;;;;;;1.63;1.53;;;7.20;99.90;;;;;;5015295;28;20502;-71
2024/03/29 03:55:22;;;;;;;1.63;1.10;;;7.20;99.90;;;;;;5020574;28;20486;-71
2024/03/29 03:57:50;;;;;;;1.80;1.30;;;7.10;99.90;;;;;;5018431;28;20874;-70
2024/03/29 04:00:17;;;;;;;2.17;1.40;;;7.10;99.90;;;;;;5014144;28;20991;-70
2024/03/29 04:02:48;;;;;;;1.50;1.40;;;7.10;99.90;;;;;;5014925;28;20863;-70
2024/03/29 04:05:16;;;;;;;2.20;1.33;;;7.10;99.90;;;;;;5008380;28;21178;-70
2024/03/29 04:07:43;;;;;;;3.40;1.50;;;7.00;99.90;;;;;;5009925;28;20479;-70
2024/03/29 04:10:09;;;;;;;2.03;1.20;;;7.00;99.90;;;;;;5007181;28;21016;-72
2024/03/29 04:12:36;;;;;;;2.00;1.40;;;7.00;99.90;;;;;;5011762;28;20502;-71
2024/03/29 04:15:03;;;;;;;2.10;1.47;;;7.00;99.90;;;;;;5010565;28;20472;-71
2024/03/29 04:17:31;;;;;;;1.67;1.43;;;7.00;99.90;;;;;;5011327;28;20471;-72
2024/03/29 04:19:57;;;;;;;5.73;1.47;;;7.00;99.90;;;;;;5008249;28;20487;-72
2024/03/29 04:22:26;;;;;;;2.70;1.30;;;7.00;99.90;;;;;;5013596;28;21405;-71
2024/03/29 04:24:52;;;;;;;2.60;1.33;;;7.00;99.90;;;;;;5008797;28;21346;-71
2024/03/29 04:27:19;;;;;;;2.87;1.20;;;7.00;99.90;;;;;;5018541;28;20463;-71
2024/03/29 04:29:45;;;;;;;4.20;1.30;;;7.00;99.90;;;;;;5012132;28;20532;-72
2024/03/29 04:32:12;;;;;;;1.37;1.27;;;7.00;99.90;;;;;;5022115;28;20472;-71
2024/03/29 04:34:38;;;;;;;1.33;1.17;;;7.00;99.90;;;;;;5021235;28;21030;-72
2024/03/29 04:37:05;;;;;;;1.80;1.03;;;7.10;99.90;;;;;;5014377;28;24473;-72
2024/03/29 04:39:34;;;;;;;1.50;1.33;;;7.10;99.90;;;;;;5008008;28;20478;-70
2024/03/29 04:42:01;;;;;;;2.60;1.20;;;7.00;99.90;;;;;;5017277;28;20463;-69
2024/03/29 04:44:28;;;;;;;4.23;1.20;;;7.00;99.90;;;;;;5018262;28;20870;-71
2024/03/29 04:46:54;;;;;;;1.70;1.10;;;7.00;99.90;;;;;;5023108;28;20483;-72
2024/03/29 04:49:30;;;;;;;1.40;1.17;;;7.00;99.90;;;;;;5020829;28;20475;-71
2024/03/29 04:51:57;;;;;;;2.50;1.30;;;7.10;99.90;;;;;;5051474;28;20482;-71
2024/03/29 04:54:24;;;;;;;3.23;1.03;;;7.10;99.90;;;;;;5033300;28;24632;-72
2024/03/29 04:56:53;;;;;;;1.20;1.10;;;7.10;99.90;;;;;;5033996;28;20466;-70
2024/03/29 04:59:20;;;;;;;2.20;1.43;;;7.10;99.90;;;;;;5035726;28;20470;-71
2024/03/29 05:01:50;;;;;;;1.20;1.10;;;7.10;99.90;;;;;;5008815;28;20479;-72
2024/03/29 05:04:24;;;;;;;4.30;1.30;;;7.10;99.90;;;;;;5010987;28;20491;-72
2024/03/29 05:06:52;;;;;;;2.03;1.20;;;7.10;99.90;;;;;;5014078;28;20502;-71
2024/03/29 05:09:19;;;;;;;1.17;1.10;;;7.10;99.90;;;;;;5008334;28;20482;-71
2024/03/29 05:11:46;;;;;;;1.70;1.10;;;7.10;99.90;;;;;;5023118;28;21047;-72
2024/03/29 05:14:16;;;;;;;1.77;1.07;;;7.20;99.90;;;;;;5014528;28;20492;-72
2024/03/29 05:16:43;;;;;;;2.23;1.40;;;7.10;99.90;;;;;;5010877;28;20830;-71
2024/03/29 05:19:10;;;;;;;2.43;1.20;;;7.10;99.90;;;;;;5015517;28;20471;-72
2024/03/29 05:21:37;;;;;;;3.57;1.50;;;7.10;99.90;;;;;;5017932;28;20487;-71
2024/03/29 05:24:05;;;;;;;2.57;1.00;;;7.10;99.90;;;;;;5020616;28;20923;-72
2024/03/29 05:26:32;;;;;;;4.67;1.23;;;7.10;99.90;;;;;;5024134;28;21037;-72
2024/03/29 05:28:59;;;;;;;1.50;1.00;;;7.10;99.90;;;;;;5015022;28;20474;-72
2024/03/29 05:31:28;;;;;;;2.17;1.30;;;7.10;99.90;;;;;;5009884;28;20510;-72
2024/03/29 05:33:55;;;;;;;2.00;1.10;;;7.10;99.90;;;;;;5020307;28;20612;-72
2024/03/29 05:36:23;;;;;;;1.90;1.23;;;7.10;99.90;;;;;;5023137;28;20468;-72
2024/03/29 05:38:50;;;;;;;2.03;1.10;;;7.10;99.90;;;;;;5021188;28;20542;-72
2024/03/29 05:41:17;;;;;;;1.97;1.50;;;7.10;99.90;;;;;;5016861;28;21050;-72
2024/03/29 05:43:44;;;;;;;4.10;1.50;;;7.10;99.90;;;;;;5017524;28;20547;-72
2024/03/29 05:46:11;;;;;;;2.27;1.20;;;7.10;99.90;;;;;;5026447;28;20483;-72
2024/03/29 05:48:39;;;;;;;1.37;1.27;;;7.10;99.90;;;;;;5013135;28;20467;-72
2024/03/29 05:51:06;;;;;;;2.63;1.30;;;7.20;99.90;;;;;;5010838;28;20487;-72
2024/03/29 05:53:33;;;;;;;2.23;1.17;;;7.20;99.90;;;;;;5015293;28;20495;-72
2024/03/29 05:56:01;;;;;;;1.50;1.17;;;7.20;99.90;;;;;;5020587;28;20847;-72
2024/03/29 05:58:28;;;;;;;1.37;1.00;;;7.20;99.90;;;;;;5019089;28;20542;-72
2024/03/29 06:00:55;;;;;;;2.63;1.97;;;7.30;99.90;;;;;;5016231;28;20491;-72
2024/03/29 06:03:22;;;;;;;1.53;1.00;;;7.30;99.90;;;;;;4994349;28;20525;-71
2024/03/29 06:05:50;;;;;;;2.10;1.10;;;7.30;99.90;;;;;;5013340;28;20899;-71
2024/03/29 06:08:17;;;;;;;1.70;0.90;;;7.30;99.90;;;;;;5018175;28;20467;-70
2024/03/29 06:10:44;;;;;;;2.20;1.30;;;7.30;99.90;;;;;;5016182;28;20525;-71
2024/03/29 06:13:27;;;;;;;3.23;1.23;;;7.40;99.90;;;;;;5014906;28;20913;-71
2024/03/29 06:18:38;;;;;;;1.27;1.00;;;7.40;99.90;;;;;;4993073;28;20873;-71
2024/03/29 06:21:06;;;;;;;2.87;1.20;;;7.40;99.90;;;;;;5011317;28;20556;-71
2024/03/29 06:23:33;;;;;;;2.47;1.30;;;7.50;99.90;;;;;;5015666;28;20544;-71
2024/03/29 06:26:03;;;;;;;1.00;1.00;;;7.50;99.90;;;;;;5010845;28;21322;-71
2024/03/29 06:28:30;;;;;;;2.10;1.30;;;7.50;99.90;;;;;;5009407;28;20996;-71
2024/03/29 06:31:00;;;;;;;2.33;1.10;;;7.60;99.90;;;;;;5003398;28;20980;-71
2024/03/29 06:33:27;;;;;;;2.63;1.10;;;7.60;99.90;;;;;;5007265;28;20518;-72
2024/03/29 06:35:55;;;;;;;1.37;1.00;;;7.60;99.90;;;;;;5006443;28;20979;-71
2024/03/29 06:38:24;;;;;;;1.20;1.00;;;7.60;99.90;;;;;;5013301;28;20684;-71
2024/03/29 06:40:51;;;;;;;1.77;1.03;;;7.60;99.90;;;;;;5012056;28;20483;-71
2024/03/29 06:43:18;;;;;;;2.17;1.30;;;7.70;99.90;;;;;;5012966;28;20569;-72
2024/03/29 06:45:45;;;;;;;2.10;1.70;;;7.70;99.90;;;;;;5009883;28;20594;-71
2024/03/29 06:48:12;;;;;;;2.13;0.93;;;7.70;99.90;;;;;;5010808;28;20525;-71
2024/03/29 06:50:40;;;;;;;1.43;1.00;;;7.70;99.90;;;;;;5011786;28;20553;-71
2024/03/29 06:53:08;;;;;;;3.43;1.17;;;7.70;99.90;;;;;;5019227;28;21086;-70
2024/03/29 06:55:37;;;;;;;2.27;1.47;;;7.70;99.90;;;;;;5019506;28;20964;-71
2024/03/29 06:58:05;;;;;;;1.67;1.10;;;7.80;99.90;;;;;;5019034;28;20463;-70
2024/03/29 07:00:32;;;;;;;2.50;1.20;;;7.80;99.90;;;;;;5014538;28;20918;-70
2024/03/29 07:02:59;;;;;;;1.00;0.90;;;7.80;99.90;;;;;;5011554;28;20492;-70
2024/03/29 07:05:26;;;;;;;3.30;1.20;;;7.90;99.90;;;;;;5009768;28;20480;-70
2024/03/29 07:07:54;;;;;;;1.50;1.20;;;7.90;99.90;;;;;;5033886;28;20843;-70
2024/03/29 07:10:21;;;;;;;2.97;1.20;;;7.90;99.90;;;;;;5016140;28;20479;-71
2024/03/29 07:12:49;;;;;;;1.53;1.00;;;8.00;99.90;;;;;;5033240;28;20553;-70
2024/03/29 07:15:16;;;;;;;3.13;1.63;;;8.00;99.90;;;;;;5016547;28;20513;-71
2024/03/29 07:17:44;;;;;;;2.60;1.20;;;8.00;99.90;;;;;;5000656;28;20476;-70
2024/03/29 07:20:11;;;;;;;3.50;1.30;;;8.10;99.90;;;;;;5013246;28;20478;-71
2024/03/29 07:22:38;;;;;;;1.33;1.20;;;8.10;99.90;;;;;;5028798;28;20496;-71
2024/03/29 07:25:06;;;;;;;3.03;1.47;;;8.10;99.90;;;;;;5010410;28;20464;-70
2024/03/29 07:27:35;;;;;;;0.90;0.90;;;8.20;99.90;;;;;;5007481;28;21016;-69
2024/03/29 07:30:04;;;;;;;2.20;1.10;;;8.20;99.90;;;;;;5000802;28;20560;-72
2024/03/29 07:32:32;;;;;;;2.90;1.10;;;8.30;99.90;;;;;;5010950;28;20496;-72
2024/03/29 07:34:59;;;;;;;1.90;1.10;;;8.30;99.90;;;;;;5016206;28;20865;-71
2024/03/29 07:37:29;;;;;;;2.80;1.20;;;8.40;99.90;;;;;;5013170;28;20471;-71
2024/03/29 07:39:56;;;;;;;3.07;1.17;;;8.50;99.90;;;;;;5013978;28;20490;-71
2024/03/29 07:42:23;;;;;;;2.73;1.20;;;8.50;99.90;;;;;;5009448;28;20483;-71
2024/03/29 07:44:51;;;;;;;1.47;1.00;;;8.60;99.90;;;;;;5009002;28;20516;-71
2024/03/29 07:47:21;;;;;;;1.97;1.00;;;8.70;99.90;;;;;;5003845;28;20509;-71
2024/03/29 07:49:48;;;;;;;1.20;1.00;;;8.70;99.90;;;;;;5008713;28;20471;-70
2024/03/29 07:52:16;;;;;;;3.40;1.30;;;8.70;99.90;;;;;;5007789;28;20475;-70
2024/03/29 07:54:43;;;;;;;1.83;1.10;;;8.70;99.90;;;;;;5009110;28;20471;-71
2024/03/29 07:57:11;;;;;;;2.10;1.03;;;8.80;99.90;;;;;;5006700;28;20464;-71
2024/03/29 07:59:38;;;;;;;1.80;1.20;;;8.80;99.90;;;;;;5009513;28;20799;-71
2024/03/29 08:02:06;;;;;;;1.73;1.10;;;8.90;99.90;;;;;;5012672;28;20467;-72
2024/03/29 08:04:34;;;;;;;2.20;1.00;;;8.90;99.90;;;;;;5006134;28;20467;-71
2024/03/29 08:07:02;;;;;;;3.80;1.50;;;9.00;99.90;;;;;;5006942;28;20558;-72
2024/03/29 08:09:29;;;;;;;2.00;1.10;;;9.00;99.90;;;;;;5011430;28;20893;-71
2024/03/29 08:11:56;;;;;;;1.20;1.10;;;9.00;99.90;;;;;;5007430;28;20585;-72
2024/03/29 08:14:25;;;;;;;2.10;1.30;;;9.00;99.90;;;;;;5012249;28;20491;-71
2024/03/29 08:16:52;;;;;;;1.53;1.03;;;9.00;99.90;;;;;;5010541;28;21055;-71
2024/03/29 08:19:19;;;;;;;1.60;1.00;;;9.10;99.90;;;;;;5011717;28;20479;-71
2024/03/29 08:21:48;;;;;;;3.20;1.10;;;9.10;99.90;;;;;;5015006;28;20506;-70
2024/03/29 08:24:15;;;;;;;1.80;1.00;;;9.10;99.90;;;;;;5015317;28;20859;-71
2024/03/29 08:26:42;;;;;;;1.30;0.80;;;9.10;99.90;;;;;;5007232;28;20479;-70
2024/03/29 08:29:09;;;;;;;1.77;1.13;;;9.20;99.90;;;;;;5015356;28;20966;-71
2024/03/29 08:31:36;;;;;;;0.90;0.77;;;9.20;99.90;;;;;;5015115;28;20556;-71
2024/03/29 08:34:03;;;;;;;2.40;1.10;;;9.30;99.90;;;;;;5015644;28;20488;-71
2024/03/29 08:36:30;;;;;;;0.90;0.90;;;9.30;99.90;;;;;;5017965;28;20537;-70
2024/03/29 08:38:59;;;;;;;1.23;1.07;;;9.30;99.90;;;;;;5015981;28;20473;-70
2024/03/29 08:41:26;;;;;;;1.13;0.70;;;9.30;99.90;;;;;;5018092;28;20667;-72
2024/03/29 08:43:53;;;;;;;1.30;0.87;;;9.30;99.90;;;;;;5019018;28;20885;-71
2024/03/29 08:46:20;;;;;;;3.17;1.00;;;9.40;99.90;;;;;;5011986;28;20486;-70
2024/03/29 08:48:47;;;;;;;1.87;1.00;;;9.40;99.90;;;;;;5010814;28;20603;-71
2024/03/29 08:51:14;;;;;;;2.37;0.80;;;9.50;99.90;;;;;;5026214;28;21248;-73
2024/03/29 08:53:41;;;;;;;1.33;0.83;;;9.50;99.90;;;;;;5035291;28;21003;-71
2024/03/29 08:56:10;;;;;;;1.20;0.83;;;9.50;99.90;;;;;;5033898;28;20478;-71
2024/03/29 08:58:37;;;;;;;1.60;0.80;;;9.60;99.90;;;;;;5026481;28;20496;-72
2024/03/29 09:01:05;;;;;;;4.10;1.00;;;9.60;99.90;;;;;;5006893;28;20484;-71
2024/03/29 09:03:32;;;;;;;1.03;0.90;;;9.70;99.90;;;;;;4998999;28;20545;-73
2024/03/29 09:06:00;;;;;;;1.23;1.03;;;9.80;99.90;;;;;;5000695;28;20467;-74
2024/03/29 09:08:27;;;;;;;1.27;0.70;;;9.80;99.90;;;;;;5002740;28;20762;-72
2024/03/29 09:10:54;;;;;;;1.00;0.80;;;9.90;99.90;;;;;;5016119;28;20536;-72
2024/03/29 09:13:22;;;;;;;2.90;1.00;;;9.90;99.90;;;;;;5020189;28;21012;-72
2024/03/29 09:15:50;;;;;;;1.60;0.70;;;9.90;99.90;;;;;;5019572;28;20872;-71
2024/03/29 09:18:23;;;;;;;1.27;0.90;;;9.90;99.90;;;;;;5023570;28;20489;-72
2024/03/29 09:20:58;;;;;;;2.23;1.47;;;9.90;99.90;;;;;;5021467;28;20495;-71
2024/03/29 09:23:27;;;;;;;1.00;0.83;;;10.00;99.90;;;;;;5027395;28;20486;-72
2024/03/29 09:25:54;;;;;;;1.20;0.90;;;10.00;99.90;;;;;;5025665;28;20897;-72
2024/03/29 09:28:23;;;;;;;3.37;1.17;;;10.10;99.90;;;;;;5018546;28;20491;-71
2024/03/29 09:30:50;;;;;;;1.63;1.10;;;10.10;99.90;;;;;;5023275;28;20943;-71
2024/03/29 09:33:17;;;;;;;1.10;0.87;;;10.10;99.90;;;;;;5028038;28;20501;-71
2024/03/29 09:35:44;;;;;;;4.00;1.00;;;10.10;99.90;;;;;;5022928;28;20530;-71
2024/03/29 09:38:11;;;;;;;0.83;0.70;;;10.00;99.90;;;;;;5025523;28;20825;-71
2024/03/29 09:40:38;;;;;;;0.83;0.80;;;10.00;99.90;;;;;;5024965;28;20479;-71
2024/03/29 09:43:08;;;;;;;1.60;0.93;;;10.00;99.90;;;;;;5025851;28;20487;-71
2024/03/29 09:45:37;;;;;;;1.90;0.87;;;9.90;99.90;;;;;;5020780;28;20566;-71
2024/03/29 09:48:05;;;;;;;2.00;1.00;;;9.90;99.90;;;;;;5025560;28;21028;-72
2024/03/29 09:50:32;;;;;;;1.60;0.80;;;9.90;99.90;;;;;;5025843;28;20488;-72
2024/03/29 09:53:00;;;;;;;1.53;1.10;;;9.90;99.90;;;;;;5022991;28;20498;-72
2024/03/29 09:55:29;;;;;;;1.83;1.00;;;9.90;99.90;;;;;;5024692;28;20968;-72
2024/03/29 09:57:57;;;;;;;2.13;1.13;;;9.90;99.90;;;;;;5025802;28;20973;-72
2024/03/29 10:00:24;;;;;;;1.03;0.87;;;9.80;99.90;;;;;;5022682;28;20998;-72
2024/03/29 10:02:56;;;;;;;0.90;0.90;;;9.80;99.90;;;;;;5025299;28;20487;-72
2024/03/29 10:05:25;;;;;;;1.17;0.80;;;9.80;99.90;;;;;;5025486;28;20471;-72
2024/03/29 10:07:51;;;;;;;1.10;0.83;;;9.90;99.90;;;;;;5023289;28;21029;-72
2024/03/29 10:10:19;;;;;;;1.47;1.00;;;9.80;99.90;;;;;;5020401;28;20533;-73
2024/03/29 10:12:46;;;;;;;1.00;0.90;;;9.90;99.90;;;;;;5026235;28;20506;-73
2024/03/29 10:15:14;;;;;;;2.80;1.20;;;9.90;99.90;;;;;;5028745;28;20476;-73
2024/03/29 10:17:48;;;;;;;1.60;0.93;;;9.90;99.90;;;;;;5024989;28;20889;-72
2024/03/29 10:20:18;;;;;;;1.37;1.10;;;9.90;99.90;;;;;;5024190;28;20556;-73
2024/03/29 10:22:46;;;;;;;1.33;1.20;;;9.90;99.90;;;;;;5024873;28;20488;-72
2024/03/29 10:25:14;;;;;;;2.30;1.00;;;9.90;99.90;;;;;;5023922;28;20506;-72
2024/03/29 10:27:41;;;;;;;3.60;1.00;;;9.90;99.90;;;;;;5024036;28;20487;-72
2024/03/29 10:30:10;;;;;;;2.30;1.10;;;9.90;99.90;;;;;;5024444;28;21021;-72
2024/03/29 10:32:39;;;;;;;1.07;1.00;;;10.00;99.90;;;;;;5026683;28;20487;-72
2024/03/29 10:35:07;;;;;;;1.20;1.10;;;10.00;99.90;;;;;;5024916;28;20467;-72
2024/03/29 10:37:38;;;;;;;1.33;1.20;;;10.00;99.90;;;;;;5025319;28;20468;-73
2024/03/29 10:40:08;;;;;;;1.73;1.10;;;10.00;99.90;;;;;;5021638;28;20471;-72
2024/03/29 10:42:37;;;;;;;1.67;1.47;;;10.00;99.90;;;;;;5026130;28;20496;-72
2024/03/29 10:45:06;;;;;;;2.03;1.17;;;10.00;99.90;;;;;;5023889;28;20467;-72
2024/03/29 10:47:33;;;;;;;3.07;1.10;;;10.00;99.90;;;;;;5026620;28;20487;-72
2024/03/29 10:50:01;;;;;;;1.80;1.13;;;10.00;99.90;;;;;;5025127;28;20483;-72
2024/03/29 10:52:28;;;;;;;2.40;1.10;;;10.00;99.90;;;;;;5017799;28;20483;-72
2024/03/29 10:54:57;;;;;;;2.30;1.03;;;10.00;99.90;;;;;;5021577;28;20471;-73
2024/03/29 10:57:26;;;;;;;1.17;1.03;;;10.00;99.90;;;;;;5025529;28;20471;-72
2024/03/29 11:00:04;;;;;;;4.20;1.03;;;10.00;99.90;;;;;;5023338;28;20491;-71
2024/03/29 11:02:40;;;;;;;1.30;1.13;;;9.90;99.90;;;;;;5022611;28;20495;-71
2024/03/29 11:05:10;;;;;;;2.63;1.30;;;10.00;99.90;;;;;;5024886;28;20512;-71
2024/03/29 11:07:41;;;;;;;2.53;1.33;;;10.00;99.90;;;;;;5026320;28;20490;-72
2024/03/29 11:10:15;;;;;;;1.30;1.20;;;10.00;99.90;;;;;;5024073;28;20902;-72
2024/03/29 11:12:48;;;;;;;2.20;1.10;;;10.10;99.90;;;;;;5017349;28;20560;-71
2024/03/29 11:15:25;;;;;;;2.60;1.37;;;10.10;99.90;;;;;;5024847;28;20525;-73
2024/03/29 11:17:53;;;;;;;2.10;1.20;;;10.10;99.90;;;;;;5023855;28;20475;-72
2024/03/29 11:20:24;;;;;;;1.83;1.30;;;10.10;99.90;;;;;;5025262;28;20482;-72
2024/03/29 11:22:52;;;;;;;1.90;1.20;;;10.10;99.90;;;;;;5016676;28;20811;-75
2024/03/29 11:25:21;;;;;;;1.90;1.30;;;10.10;99.90;;;;;;5025769;28;20475;-72
2024/03/29 11:27:48;;;;;;;1.60;1.40;;;10.10;99.90;;;;;;5024209;28;20487;-72
2024/03/29 11:30:19;;;;;;;1.60;1.27;;;10.10;99.90;;;;;;5019893;28;20867;-71
2024/03/29 11:32:46;;;;;;;1.60;1.50;;;10.10;99.90;;;;;;5019019;28;20495;-72
2024/03/29 11:35:17;;;;;;;1.80;1.20;;;10.10;99.90;;;;;;5023866;28;20470;-72
2024/03/29 11:37:44;;;;;;;2.10;1.47;;;10.20;99.90;;;;;;5014806;28;20467;-71
2024/03/29 11:40:12;;;;;;;1.50;1.40;;;10.10;99.90;;;;;;5024493;28;20480;-71
2024/03/29 11:42:48;;;;;;;2.10;1.33;;;10.20;99.90;;;;;;5024676;28;20488;-72
2024/03/29 11:45:16;;;;;;;1.60;1.20;;;10.30;99.90;;;;;;5025782;28;20473;-72
2024/03/29 11:47:43;;;;;;;1.77;1.40;;;10.20;99.90;;;;;;5020172;28;20491;-72
2024/03/29 11:50:12;;;;;;;1.90;1.33;;;10.30;99.90;;;;;;5023021;28;20471;-72
2024/03/29 11:52:40;;;;;;;2.00;1.27;;;10.30;99.90;;;;;;5021906;28;20867;-72
2024/03/29 11:55:08;;;;;;;2.00;1.47;;;10.40;99.90;;;;;;5021899;28;20521;-72
2024/03/29 11:57:39;;;;;;;3.07;1.50;;;10.50;99.90;;;;;;5022896;28;20470;-72
2024/03/29 12:00:11;;;;;;;2.30;1.60;;;10.50;99.90;;;;;;5023496;28;20483;-71
2024/03/29 12:02:40;;;;;;;1.43;1.20;;;10.50;99.90;;;;;;5022835;28;20495;-72
2024/03/29 12:05:09;;;;;;;1.60;1.40;;;10.60;99.90;;;;;;5022618;28;20463;-72
2024/03/29 12:07:36;;;;;;;2.03;1.57;;;10.70;99.90;;;;;;5019223;28;20495;-73
2024/03/29 12:10:04;;;;;;;2.00;1.57;;;10.70;99.90;;;;;;5021444;28;20479;-72
2024/03/29 12:12:37;;;;;;;1.70;1.50;;;10.70;99.90;;;;;;5022680;28;20491;-72
2024/03/29 12:15:05;;;;;;;1.63;1.53;;;10.80;99.90;;;;;;5023992;28;20467;-72
2024/03/29 12:17:33;;;;;;;2.17;1.40;;;10.90;99.90;;;;;;5024100;28;20456;-72
2024/03/29 12:20:04;;;;;;;1.97;1.43;;;11.00;99.90;;;;;;5020499;28;20479;-71
2024/03/29 12:22:32;;;;;;;1.73;1.40;;;11.10;99.90;;;;;;5023264;28;20590;-72
2024/03/29 12:24:59;;;;;;;2.50;1.67;;;11.20;99.90;;;;;;5024035;28;20463;-72
2024/03/29 12:27:26;;;;;;;2.30;1.50;;;11.30;99.90;;;;;;5024663;28;20476;-71
2024/03/29 12:29:54;;;;;;;2.30;1.80;;;11.30;99.90;;;;;;5022286;28;20482;-72
2024/03/29 12:32:21;;;;;;;2.60;1.73;;;11.30;99.90;;;;;;5020955;28;20467;-71
2024/03/29 12:34:50;;;;;;;1.67;1.23;;;11.30;99.90;;;;;;5022550;28;20949;-71
2024/03/29 12:37:17;;;;;;;7.07;1.87;;;11.40;99.90;;;;;;5019133;28;20530;-71
2024/03/29 12:39:45;;;;;;;3.10;1.60;;;11.40;99.90;;;;;;5018960;28;20650;-71
2024/03/29 12:42:13;;;;;;;2.60;1.70;;;11.40;99.90;;;;;;5023907;28;20475;-71
2024/03/29 12:44:40;;;;;;;2.30;1.63;;;11.40;99.90;;;;;;5023635;28;20479;-72
2024/03/29 12:47:07;;;;;;;1.70;1.60;;;11.40;99.90;;;;;;5025053;28;20506;-72
2024/03/29 12:49:35;;;;;;;2.00;1.50;;;11.40;99.90;;;;;;5025496;28;20483;-71
2024/03/29 12:52:06;;;;;;;2.60;1.67;;;11.40;99.90;;;;;;5025021;28;20538;-71
2024/03/29 12:54:33;;;;;;;1.70;1.60;;;11.50;99.90;;;;;;5028281;28;20463;-72
2024/03/29 12:57:02;;;;;;;1.47;1.37;;;11.50;99.90;;;;;;5024723;28;20793;-71
2024/03/29 12:59:30;;;;;;;1.47;1.30;;;11.70;99.90;;;;;;5026170;28;20837;-71
2024/03/29 13:01:57;;;;;;;2.00;1.70;;;11.80;99.90;;;;;;5028039;28;20463;-71
2024/03/29 13:04:24;;;;;;;2.57;1.30;;;11.90;99.90;;;;;;5026945;28;20992;-71
2024/03/29 13:06:51;;;;;;;2.00;1.70;;;11.90;99.90;;;;;;5020989;28;20475;-71
2024/03/29 13:09:20;;;;;;;1.67;1.57;;;12.00;99.90;;;;;;5026548;28;20533;-71
2024/03/29 13:11:47;;;;;;;2.10;1.47;;;12.10;99.90;;;;;;5024725;28;20490;-71
2024/03/29 13:14:15;;;;;;;3.80;1.77;;;12.10;99.90;;;;;;5026281;28;20870;-71
2024/03/29 13:16:42;;;;;;;3.13;1.50;;;12.10;99.90;;;;;;5026267;28;20836;-71
2024/03/29 13:19:09;;;;;;;1.43;1.33;;;12.10;99.90;;;;;;5027301;28;20898;-73
2024/03/29 13:21:36;;;;;;;1.80;1.70;;;12.10;99.90;;;;;;5025544;28;20521;-71
2024/03/29 13:24:04;;;;;;;1.70;1.60;;;12.10;99.90;;;;;;5025625;28;20492;-72
2024/03/29 13:26:33;;;;;;;2.10;1.57;;;12.10;99.90;;;;;;5021783;28;20478;-71
2024/03/29 13:29:00;;;;;;;1.97;1.60;;;12.10;99.90;;;;;;5022952;28;21735;-71
2024/03/29 13:31:28;;;;;;;2.67;1.77;;;12.20;99.90;;;;;;5025213;28;20987;-72
2024/03/29 13:34:03;;;;;;;2.50;1.80;;;12.20;99.90;;;;;;5025369;28;20533;-72
2024/03/29 13:36:30;;;;;;;1.70;1.40;;;12.30;99.90;;;;;;5026450;28;20476;-72
2024/03/29 13:38:57;;;;;;;1.80;1.70;;;12.40;99.90;;;;;;5023678;28;21004;-71
2024/03/29 13:41:24;;;;;;;2.60;1.67;;;12.50;99.90;;;;;;5026457;28;20930;-71
2024/03/29 13:43:54;;;;;;;3.53;1.97;;;12.50;99.90;;;;;;5025769;28;20486;-71
2024/03/29 13:46:21;;;;;;;2.20;1.87;;;12.50;99.90;;;;;;5022031;28;20553;-72
2024/03/29 13:48:48;;;;;;;2.20;1.57;;;12.60;99.90;;;;;;5024803;28;20498;-72
2024/03/29 13:51:15;;;;;;;2.00;1.60;;;12.50;99.90;;;;;;5024960;28;20480;-72
2024/03/29 13:53:43;;;;;;;1.43;1.33;;;12.50;99.90;;;;;;5025194;28;20822;-71
2024/03/29 13:56:10;;;;;;;1.57;1.47;;;12.50;99.90;;;;;;5026364;28;20469;-72
2024/03/29 13:58:37;;;;;;;1.37;1.27;;;12.50;99.90;;;;;;5026742;28;20472;-71
2024/03/29 14:01:06;;;;;;;1.70;1.60;;;12.40;99.90;;;;;;5025755;28;20533;-72
2024/03/29 14:03:33;;;;;;;1.53;1.43;;;12.40;99.90;;;;;;5022107;28;20492;-71
2024/03/29 14:06:01;;;;;;;4.20;1.53;;;12.40;99.90;;;;;;5025964;28;20535;-72
2024/03/29 14:08:28;;;;;;;1.70;1.40;;;12.50;99.90;;;;;;5020427;28;20541;-72
2024/03/29 14:10:55;;;;;;;2.30;1.53;;;12.50;99.90;;;;;;5023365;28;20842;-72
2024/03/29 14:13:22;;;;;;;2.10;1.63;;;12.50;99.90;;;;;;5025045;28;20491;-71
2024/03/29 14:15:49;;;;;;;1.77;1.67;;;12.50;99.90;;;;;;5026092;28;20540;-72
2024/03/29 14:18:17;;;;;;;2.77;1.53;;;12.50;99.90;;;;;;5024675;28;20533;-72
2024/03/29 14:20:43;;;;;;;1.77;1.50;;;12.60;99.90;;;;;;5022859;28;20513;-72
2024/03/29 14:23:14;;;;;;;2.10;1.90;;;12.60;99.90;;;;;;5025770;28;20491;-72
2024/03/29 14:25:42;;;;;;;1.20;1.10;;;12.60;99.90;;;;;;5026859;28;20464;-71
2024/03/29 14:28:09;;;;;;;1.60;1.50;;;12.60;99.90;;;;;;5025016;28;20858;-72
2024/03/29 14:30:36;;;;;;;3.03;1.50;;;12.60;99.90;;;;;;5020883;28;20691;-72
2024/03/29 14:33:06;;;;;;;1.50;1.40;;;12.70;99.90;;;;;;5026457;28;20488;-71
2024/03/29 14:35:36;;;;;;;1.20;1.10;;;12.70;99.90;;;;;;5025722;28;20490;-72
2024/03/29 14:38:03;;;;;;;1.37;1.27;;;12.90;99.90;;;;;;5022513;28;20468;-72
2024/03/29 14:40:31;;;;;;;2.00;1.80;;;13.10;99.90;;;;;;5023633;28;20935;-71
2024/03/29 14:42:58;;;;;;;1.57;1.33;;;13.20;99.90;;;;;;5025645;28;20487;-72
2024/03/29 14:45:25;;;;;;;1.53;1.10;;;13.50;99.90;;;;;;5025294;28;20478;-72